Main page
METAR-TAF:

METAR-TAF

Airports :

Zenata – Messali El Hadj Airport

Tlemcen, Algeria

latitude: 35-01N, longitude: 001-28W, elevation: 247 m

Current weather observation

The report was made 19 minutes ago, at 21:30 UTC
Calm wind
Temperature 13°C
Humidity 82%
Pressure 1026 hPa
Visibility 10 km or more
no clouds below 1500 m and no cumulonimbus

METAR: DAON 272130Z 00000KT CAVOK 13/10 Q1026

Time: 22:49 (21:49 UTC)

Forecast

The report was made 4 hours and 49 minutes ago, at 17:00 UTC
Forecast valid from 27 at 18 UTC to 28 at 18 UTC
Wind 2 kt from variable directions
Visibility 10 km or more
Few clouds at a height of 2600 ft
Probability 30% :
Temporary
from 28 at 02 UTC to 28 at 10 UTC
Visibility: 2000 m
Broken clouds at a height of 1000 ft
mist

TAF: DAON 271700Z 2718/2818 VRB02KT 9999 FEW026 PROB30 TEMPO 2802/2810 2000 BR BKN010

Weather observations and forecasts of more than 4000 airports (METAR and TAF reports).

The available stations are represented by yellow and red dots on the map.

Hover mouse over dot to see the name of the station.

Then click to see weather observations and forecasts.

To change the map : click on the green buttons with a black cross to zoom in, on the green button with a dash to zoom out, or on the green arrows for adjacent maps.


METAR-TAF: